Time;durP1;ratioP1;P1;durP2;ratioP2;P2;SDS_P1;SDS_P2;PMS_P1;PMS_P2;Temp;Humidity;BMP_temperature;BMP_pressure;BME280_temperature;BME280_humidity;BME280_pressure;Samples;Min_cycle;Max_cycle;Signal;HPM_P1;HPM_P2
2023/12/13 00:02:15;;;;;;;5.93;3.00;;;22.70;77.30;;;;;;4980143;28;20463;-72
2023/12/13 00:04:43;;;;;;;4.80;3.33;;;22.70;77.20;;;;;;4985866;28;21080;-72
2023/12/13 00:07:10;;;;;;;7.13;3.87;;;22.60;77.00;;;;;;4988287;28;20466;-71
2023/12/13 00:09:38;;;;;;;4.97;3.23;;;22.60;77.00;;;;;;4984944;28;20463;-73
2023/12/13 00:12:05;;;;;;;6.23;3.40;;;22.60;77.10;;;;;;4983865;28;20874;-73
2023/12/13 00:14:31;;;;;;;7.70;5.00;;;22.60;77.10;;;;;;4978690;28;21044;-72
2023/12/13 00:16:58;;;;;;;4.80;4.17;;;22.60;77.20;;;;;;4980694;28;20472;-75
2023/12/13 00:19:25;;;;;;;7.40;4.70;;;22.60;77.20;;;;;;4985481;28;20459;-70
2023/12/13 00:21:53;;;;;;;9.00;5.43;;;22.50;77.10;;;;;;4983963;28;20486;-73
2023/12/13 00:24:19;;;;;;;10.03;4.83;;;22.50;77.20;;;;;;4986559;28;20486;-69
2023/12/13 00:26:46;;;;;;;9.40;5.37;;;22.50;77.10;;;;;;4985217;28;20903;-73
2023/12/13 00:29:13;;;;;;;7.80;5.30;;;22.50;77.10;;;;;;4976292;28;20476;-68
2023/12/13 00:31:40;;;;;;;12.00;6.80;;;22.50;77.10;;;;;;4983357;28;20474;-71
2023/12/13 00:34:07;;;;;;;7.60;4.97;;;22.40;77.10;;;;;;4975724;28;20557;-69
2023/12/13 00:36:33;;;;;;;12.03;5.53;;;22.40;77.10;;;;;;4982851;28;20547;-70
2023/12/13 00:39:02;;;;;;;12.63;6.33;;;22.40;77.20;;;;;;4981784;28;20460;-71
2023/12/13 00:41:29;;;;;;;13.10;6.50;;;22.40;77.30;;;;;;4982552;28;20480;-68
2023/12/13 00:43:56;;;;;;;10.70;6.50;;;22.30;77.10;;;;;;4981960;28;20468;-68
2023/12/13 00:46:23;;;;;;;7.73;5.40;;;22.40;77.30;;;;;;4990228;28;21037;-67
2023/12/13 00:48:50;;;;;;;13.77;6.70;;;22.30;77.40;;;;;;4982377;28;20507;-70
2023/12/13 00:51:17;;;;;;;8.43;5.47;;;22.40;77.60;;;;;;4969260;28;20467;-69
2023/12/13 00:53:44;;;;;;;13.20;6.40;;;22.30;77.50;;;;;;4966278;28;21517;-69
2023/12/13 00:56:12;;;;;;;7.20;5.07;;;22.30;77.60;;;;;;4980885;28;20468;-70
2023/12/13 00:58:39;;;;;;;9.40;4.83;;;22.20;77.50;;;;;;4979429;28;20502;-71
2023/12/13 01:01:06;;;;;;;8.37;5.40;;;22.30;77.60;;;;;;4982645;28;20483;-71
2023/12/13 01:03:33;;;;;;;11.63;5.80;;;22.30;77.40;;;;;;4984668;28;20467;-71
2023/12/13 01:06:00;;;;;;;7.90;5.60;;;22.20;77.30;;;;;;4983362;28;20491;-71
2023/12/13 01:08:27;;;;;;;10.83;4.83;;;22.20;77.40;;;;;;4978066;28;20460;-71
2023/12/13 01:10:55;;;;;;;8.47;5.53;;;22.20;77.30;;;;;;4973689;28;20467;-71
2023/12/13 01:13:23;;;;;;;12.20;5.70;;;22.20;77.20;;;;;;4954193;28;21261;-72
2023/12/13 01:15:49;;;;;;;7.50;4.83;;;22.20;77.20;;;;;;4961488;28;20463;-70
2023/12/13 01:18:16;;;;;;;6.20;5.07;;;22.10;77.00;;;;;;4972893;28;21149;-72
2023/12/13 01:20:43;;;;;;;8.00;5.03;;;22.10;76.90;;;;;;4979126;28;20476;-72
2023/12/13 01:23:10;;;;;;;9.83;5.00;;;22.10;77.00;;;;;;4979964;28;20590;-72
2023/12/13 01:25:36;;;;;;;6.73;4.33;;;22.10;77.00;;;;;;4983684;28;21061;-72
2023/12/13 01:28:03;;;;;;;8.97;5.07;;;22.00;76.90;;;;;;4977688;28;20463;-72
2023/12/13 01:30:31;;;;;;;14.40;6.47;;;22.00;76.90;;;;;;4974534;28;20460;-72
2023/12/13 01:32:58;;;;;;;8.70;4.80;;;22.00;76.80;;;;;;4984046;28;20462;-72
2023/12/13 01:35:25;;;;;;;7.73;5.67;;;22.00;76.80;;;;;;4968952;28;20613;-72
2023/12/13 01:37:51;;;;;;;7.23;5.03;;;21.90;76.60;;;;;;4979120;28;20470;-72
2023/12/13 01:40:18;;;;;;;7.40;4.90;;;21.90;76.70;;;;;;4974994;28;20460;-72
2023/12/13 01:42:45;;;;;;;7.90;5.00;;;21.90;76.70;;;;;;4976818;28;20463;-71
2023/12/13 01:45:12;;;;;;;7.07;4.37;;;21.90;76.70;;;;;;4966477;28;20463;-71
2023/12/13 01:47:40;;;;;;;8.43;4.80;;;21.90;76.80;;;;;;4978590;28;20475;-72
2023/12/13 01:50:08;;;;;;;10.27;5.27;;;21.90;76.80;;;;;;4979521;28;20468;-72
2023/12/13 01:52:36;;;;;;;8.63;5.43;;;21.90;76.80;;;;;;4983832;28;20463;-72
2023/12/13 01:55:03;;;;;;;7.90;5.33;;;21.80;76.60;;;;;;4979030;28;20613;-70
2023/12/13 01:57:30;;;;;;;7.60;4.07;;;21.80;76.70;;;;;;4982956;28;20471;-70
2023/12/13 01:59:57;;;;;;;8.77;5.80;;;21.80;76.60;;;;;;4971313;28;20464;-70
2023/12/13 02:02:24;;;;;;;7.78;5.15;;;21.90;76.60;;;;;;4983857;28;20489;-69
2023/12/13 02:04:54;;;;;;;6.47;4.15;;;21.80;76.60;;;;;;4975221;28;20637;-71
2023/12/13 02:07:21;;;;;;;7.47;5.53;;;21.80;76.50;;;;;;4981927;28;20201;-70
2023/12/13 02:09:47;;;;;;;7.43;5.57;;;21.80;76.40;;;;;;4980264;28;20463;-70
2023/12/13 02:12:14;;;;;;;10.57;4.60;;;21.80;76.40;;;;;;4979579;28;20470;-71
2023/12/13 02:14:41;;;;;;;5.90;4.00;;;21.70;76.40;;;;;;4986013;28;20466;-72
2023/12/13 02:17:08;;;;;;;10.07;4.70;;;21.70;76.30;;;;;;4982145;28;20216;-72
2023/12/13 02:19:37;;;;;;;5.78;4.22;;;21.80;76.50;;;;;;4982854;28;20468;-72
2023/12/13 02:22:08;;;;;;;7.33;4.80;;;21.70;76.40;;;;;;4983298;28;20256;-72
2023/12/13 02:24:37;;;;;;;6.90;4.03;;;21.60;76.40;;;;;;4982753;28;20455;-72
2023/12/13 02:27:04;;;;;;;9.70;4.38;;;21.60;76.40;;;;;;4972426;28;20459;-72
2023/12/13 02:29:31;;;;;;;7.75;4.07;;;21.60;76.40;;;;;;4977061;28;20205;-72
2023/12/13 02:31:58;;;;;;;6.15;4.55;;;21.60;76.50;;;;;;4985038;28;20207;-71
2023/12/13 02:34:25;;;;;;;7.07;4.32;;;21.60;76.50;;;;;;4982011;28;20205;-71
2023/12/13 02:36:52;;;;;;;7.05;4.22;;;21.60;76.60;;;;;;4980196;28;20212;-72
2023/12/13 02:39:20;;;;;;;5.13;3.77;;;21.60;76.50;;;;;;4978088;28;20208;-72
2023/12/13 02:41:47;;;;;;;8.63;4.40;;;21.60;76.50;;;;;;4979316;28;20534;-72
2023/12/13 02:44:13;;;;;;;7.20;4.00;;;21.60;76.40;;;;;;4986132;28;21395;-72
2023/12/13 02:46:40;;;;;;;8.05;5.45;;;21.60;76.50;;;;;;4986633;28;20471;-72
2023/12/13 02:49:07;;;;;;;6.10;4.33;;;21.60;76.40;;;;;;4981530;28;20207;-69
2023/12/13 02:51:33;;;;;;;6.87;4.37;;;21.50;76.20;;;;;;4980209;28;21295;-71
2023/12/13 02:54:00;;;;;;;5.95;4.40;;;21.50;76.20;;;;;;4981897;28;20496;-71
2023/12/13 02:56:28;;;;;;;9.85;4.30;;;21.50;76.10;;;;;;4982323;28;20189;-72
2023/12/13 02:58:55;;;;;;;7.20;4.03;;;21.50;76.20;;;;;;4982577;28;20193;-72
2023/12/13 03:01:21;;;;;;;4.50;3.53;;;21.50;76.30;;;;;;4979574;28;20477;-71
2023/12/13 03:03:48;;;;;;;5.38;3.67;;;21.50;76.30;;;;;;4982003;28;20559;-72
2023/12/13 03:06:15;;;;;;;5.67;3.80;;;21.50;76.10;;;;;;4981827;28;20196;-71
2023/12/13 03:08:41;;;;;;;7.00;4.23;;;21.50;76.30;;;;;;4983889;28;20463;-71
2023/12/13 03:11:10;;;;;;;5.93;4.40;;;21.40;76.10;;;;;;4980178;28;20463;-71
2023/12/13 03:13:38;;;;;;;5.15;3.40;;;21.40;76.20;;;;;;4985155;28;20477;-71
2023/12/13 03:16:06;;;;;;;4.32;3.92;;;21.40;76.20;;;;;;4988980;28;20229;-72
2023/12/13 03:18:33;;;;;;;4.70;3.42;;;21.40;76.20;;;;;;4982195;28;20661;-72
2023/12/13 03:21:00;;;;;;;5.38;3.65;;;21.40;76.20;;;;;;4987595;28;20223;-71
2023/12/13 03:23:26;;;;;;;7.07;4.20;;;21.40;76.30;;;;;;4986017;28;20204;-72
2023/12/13 03:25:53;;;;;;;7.90;4.53;;;21.30;76.20;;;;;;4986530;28;20475;-72
2023/12/13 03:28:20;;;;;;;5.93;3.47;;;21.30;76.30;;;;;;4982815;28;20197;-72
2023/12/13 03:30:48;;;;;;;5.33;3.70;;;21.30;76.30;;;;;;4985964;28;21085;-71
2023/12/13 03:33:15;;;;;;;6.95;3.83;;;21.30;76.20;;;;;;4986091;28;20477;-72
2023/12/13 03:35:41;;;;;;;6.80;4.40;;;21.30;76.20;;;;;;4982968;28;20207;-72
2023/12/13 03:38:08;;;;;;;6.50;3.20;;;21.30;76.20;;;;;;4983925;28;20467;-72
2023/12/13 03:40:35;;;;;;;3.72;3.30;;;21.30;76.20;;;;;;4984820;28;20460;-72
2023/12/13 03:43:02;;;;;;;4.17;3.63;;;21.30;76.00;;;;;;4981582;28;20223;-72
2023/12/13 03:45:29;;;;;;;4.35;3.40;;;21.30;76.10;;;;;;4984225;28;20466;-72
2023/12/13 03:47:57;;;;;;;5.47;3.50;;;21.30;76.20;;;;;;4986610;28;20673;-72
2023/12/13 03:50:24;;;;;;;5.65;3.80;;;21.30;76.10;;;;;;4984714;28;20557;-72
2023/12/13 03:52:50;;;;;;;4.85;3.40;;;21.30;76.10;;;;;;4981708;28;20212;-71
2023/12/13 03:55:17;;;;;;;5.72;3.47;;;21.30;76.20;;;;;;4978100;28;20661;-71
2023/12/13 03:57:44;;;;;;;3.80;2.93;;;21.20;76.20;;;;;;4978620;28;20211;-72
2023/12/13 04:00:11;;;;;;;5.32;3.65;;;21.20;76.00;;;;;;4979941;28;20475;-72
2023/12/13 04:02:38;;;;;;;6.00;4.07;;;21.20;76.10;;;;;;4981125;28;20223;-72
2023/12/13 04:05:07;;;;;;;4.80;3.67;;;21.20;76.00;;;;;;4977496;28;20687;-72
2023/12/13 04:07:34;;;;;;;5.10;3.70;;;21.20;75.90;;;;;;4981845;28;20575;-72
2023/12/13 04:10:00;;;;;;;7.80;4.25;;;21.20;75.90;;;;;;4982594;28;20200;-72
2023/12/13 04:12:27;;;;;;;6.90;3.33;;;21.20;76.10;;;;;;4984931;28;20204;-72
2023/12/13 04:14:55;;;;;;;5.43;3.50;;;21.20;76.20;;;;;;4983358;28;20208;-72
2023/12/13 04:17:22;;;;;;;5.00;3.17;;;21.10;76.00;;;;;;4981453;28;20288;-72
2023/12/13 04:19:48;;;;;;;3.60;3.17;;;21.10;76.30;;;;;;4981485;28;20208;-72
2023/12/13 04:22:17;;;;;;;3.78;2.95;;;21.10;76.30;;;;;;4989174;28;20230;-72
2023/12/13 04:24:43;;;;;;;4.97;3.55;;;21.10;76.30;;;;;;4986423;28;20213;-72
2023/12/13 04:27:10;;;;;;;4.30;3.03;;;21.10;76.20;;;;;;4981699;28;20818;-71
2023/12/13 04:29:37;;;;;;;3.58;3.28;;;21.10;76.20;;;;;;4987040;28;20196;-72
2023/12/13 04:32:04;;;;;;;6.00;2.75;;;21.10;76.10;;;;;;4980679;28;21212;-72
2023/12/13 04:34:31;;;;;;;3.90;3.30;;;21.10;76.00;;;;;;4977068;28;20209;-72
2023/12/13 04:36:58;;;;;;;4.72;3.35;;;21.10;76.00;;;;;;4981511;28;20197;-72
2023/12/13 04:39:26;;;;;;;5.22;3.70;;;21.10;76.00;;;;;;4984309;28;20199;-72
2023/12/13 04:41:53;;;;;;;4.20;3.45;;;21.10;76.70;;;;;;4985236;28;20232;-72
2023/12/13 04:44:20;;;;;;;3.50;2.70;;;21.10;75.80;;;;;;4977679;28;20204;-72
2023/12/13 04:46:47;;;;;;;6.13;2.70;;;21.10;75.80;;;;;;4978525;28;20196;-72
2023/12/13 04:49:13;;;;;;;5.03;3.47;;;21.10;75.90;;;;;;4979658;28;20699;-72
2023/12/13 04:51:40;;;;;;;5.05;3.10;;;21.00;75.90;;;;;;4982316;28;20235;-72
2023/12/13 04:54:07;;;;;;;4.30;2.78;;;21.00;76.00;;;;;;4978795;28;20197;-72
2023/12/13 04:56:35;;;;;;;3.50;3.05;;;21.00;76.00;;;;;;4977282;28;20565;-72
2023/12/13 04:59:01;;;;;;;5.00;3.38;;;21.10;76.00;;;;;;4982205;28;20196;-72
2023/12/13 05:01:28;;;;;;;3.90;2.80;;;21.00;76.00;;;;;;4977659;28;20213;-71
2023/12/13 05:03:55;;;;;;;3.25;2.95;;;21.00;76.00;;;;;;4980430;28;20201;-72
2023/12/13 05:06:21;;;;;;;4.03;3.20;;;21.00;76.00;;;;;;4981211;28;20201;-72
2023/12/13 05:08:48;;;;;;;3.47;2.60;;;21.00;76.00;;;;;;4977385;28;20193;-71
2023/12/13 05:11:15;;;;;;;3.35;2.72;;;21.00;76.00;;;;;;4977919;28;20227;-70
2023/12/13 05:13:43;;;;;;;4.72;3.40;;;20.90;76.00;;;;;;4980407;28;20197;-72
2023/12/13 05:16:10;;;;;;;3.38;3.03;;;20.90;76.00;;;;;;4975674;28;20685;-70
2023/12/13 05:18:37;;;;;;;3.30;2.40;;;21.00;76.10;;;;;;4981496;28;20846;-70
2023/12/13 05:21:04;;;;;;;5.83;3.03;;;20.90;76.10;;;;;;4982849;28;20208;-71
2023/12/13 05:23:31;;;;;;;4.15;2.92;;;21.00;76.10;;;;;;4984725;28;20483;-72
2023/12/13 05:25:57;;;;;;;4.50;3.55;;;20.90;75.90;;;;;;4979280;28;20933;-71
2023/12/13 05:28:24;;;;;;;3.83;2.85;;;20.90;76.00;;;;;;4983410;28;20212;-72
2023/12/13 05:30:52;;;;;;;5.20;2.63;;;20.90;75.90;;;;;;4986401;28;20200;-72
2023/12/13 05:33:19;;;;;;;3.80;2.80;;;20.90;75.90;;;;;;4980866;28;20339;-71
2023/12/13 05:35:46;;;;;;;5.50;3.15;;;20.90;76.00;;;;;;4983353;28;20223;-72
2023/12/13 05:38:12;;;;;;;3.20;2.88;;;20.90;75.70;;;;;;4982076;28;20205;-72
2023/12/13 05:40:39;;;;;;;3.92;2.60;;;20.90;76.00;;;;;;4984823;28;20196;-72
2023/12/13 05:43:06;;;;;;;4.53;3.42;;;20.90;76.10;;;;;;4983719;28;20223;-72
2023/12/13 05:45:32;;;;;;;4.10;3.47;;;20.90;76.10;;;;;;4980560;28;20992;-71
2023/12/13 05:48:01;;;;;;;3.28;2.40;;;20.90;76.00;;;;;;4983254;28;20196;-71
2023/12/13 05:50:27;;;;;;;3.83;2.80;;;20.90;76.10;;;;;;4977890;28;20422;-71
2023/12/13 05:52:54;;;;;;;4.47;2.95;;;20.90;76.20;;;;;;4983334;28;20297;-71
2023/12/13 05:55:21;;;;;;;4.18;2.72;;;20.90;76.10;;;;;;4979759;28;20200;-71
2023/12/13 05:57:47;;;;;;;5.13;2.97;;;20.90;76.20;;;;;;4983693;28;20226;-71
2023/12/13 06:00:16;;;;;;;5.07;2.80;;;20.90;76.20;;;;;;4979625;28;20205;-71
2023/12/13 06:02:42;;;;;;;3.58;2.72;;;20.90;76.10;;;;;;4984716;28;20216;-71
2023/12/13 06:05:11;;;;;;;3.92;2.45;;;20.80;76.10;;;;;;4984992;28;21077;-71
2023/12/13 06:07:37;;;;;;;3.10;2.50;;;20.90;76.10;;;;;;4981534;28;20229;-71
2023/12/13 06:10:07;;;;;;;3.20;2.67;;;20.80;76.00;;;;;;4980311;28;20204;-71
2023/12/13 06:12:33;;;;;;;4.75;2.13;;;20.80;75.90;;;;;;4983346;28;20207;-71
2023/12/13 06:15:00;;;;;;;3.20;2.70;;;20.80;75.90;;;;;;4978761;28;20200;-71
2023/12/13 06:17:27;;;;;;;3.15;2.42;;;20.80;75.90;;;;;;4979266;28;20216;-71
2023/12/13 06:19:53;;;;;;;3.50;2.75;;;20.80;76.20;;;;;;4982965;28;20232;-71
2023/12/13 06:22:22;;;;;;;2.90;2.15;;;20.80;76.10;;;;;;4978308;28;20476;-72
2023/12/13 06:24:48;;;;;;;4.90;2.65;;;20.80;76.10;;;;;;4982046;28;20208;-71
2023/12/13 06:27:15;;;;;;;7.00;3.10;;;20.80;76.10;;;;;;4980596;28;20213;-71
2023/12/13 06:29:42;;;;;;;3.47;2.83;;;20.80;76.00;;;;;;4982309;28;21288;-71
2023/12/13 06:32:09;;;;;;;3.72;2.47;;;20.70;76.10;;;;;;4982714;28;20558;-71
2023/12/13 06:34:36;;;;;;;3.15;2.15;;;20.80;76.20;;;;;;4979450;28;20256;-71
2023/12/13 06:37:03;;;;;;;3.92;2.70;;;20.80;76.20;;;;;;4983867;28;20204;-71
2023/12/13 06:39:31;;;;;;;3.50;2.65;;;20.80;76.20;;;;;;4983315;28;20200;-71
2023/12/13 06:41:57;;;;;;;3.50;2.78;;;20.70;76.10;;;;;;4981455;28;20212;-71
2023/12/13 06:44:24;;;;;;;5.38;2.70;;;20.70;75.90;;;;;;4977670;28;20284;-71
2023/12/13 06:46:51;;;;;;;3.70;2.20;;;20.80;76.10;;;;;;4982100;28;20215;-71
2023/12/13 06:49:18;;;;;;;4.15;2.70;;;20.70;76.10;;;;;;4979290;28;20205;-71
2023/12/13 06:51:44;;;;;;;3.88;2.50;;;20.70;75.90;;;;;;4984883;28;20207;-72
2023/12/13 06:54:11;;;;;;;4.88;2.50;;;20.70;76.80;;;;;;4980456;28;20802;-71
2023/12/13 06:56:39;;;;;;;3.97;2.75;;;20.70;75.90;;;;;;4981853;28;20201;-71
2023/12/13 06:59:07;;;;;;;4.22;2.60;;;20.70;76.00;;;;;;4977663;28;20201;-71
2023/12/13 07:01:33;;;;;;;2.60;2.10;;;20.70;75.90;;;;;;4983062;28;20224;-70
2023/12/13 07:04:01;;;;;;;2.45;2.25;;;20.70;76.00;;;;;;4980924;28;20490;-72
2023/12/13 07:06:28;;;;;;;3.70;2.92;;;20.70;76.60;;;;;;4984111;28;20652;-70
2023/12/13 07:08:55;;;;;;;3.22;2.45;;;20.70;76.20;;;;;;4981557;28;20204;-72
2023/12/13 07:11:24;;;;;;;3.58;2.70;;;20.60;76.00;;;;;;4982501;28;20711;-72
2023/12/13 07:13:52;;;;;;;4.30;2.67;;;20.70;76.10;;;;;;4978201;28;20283;-71
2023/12/13 07:16:19;;;;;;;2.55;1.98;;;20.60;75.80;;;;;;4985629;28;20543;-72
2023/12/13 07:18:45;;;;;;;3.00;2.65;;;20.70;76.00;;;;;;4981787;28;20781;-71
2023/12/13 07:21:12;;;;;;;3.20;2.60;;;20.60;75.80;;;;;;4981299;28;20204;-71
2023/12/13 07:23:40;;;;;;;3.60;2.05;;;20.60;75.90;;;;;;4984869;28;20236;-72
2023/12/13 07:26:07;;;;;;;2.60;2.40;;;20.60;75.90;;;;;;4985682;28;20208;-72
2023/12/13 07:28:35;;;;;;;5.68;2.55;;;20.60;76.00;;;;;;4982014;28;21310;-70
2023/12/13 07:31:04;;;;;;;3.95;2.60;;;20.60;75.90;;;;;;4982522;28;20304;-73
2023/12/13 07:33:31;;;;;;;2.92;2.65;;;20.60;76.10;;;;;;4982683;28;20196;-71
2023/12/13 07:35:58;;;;;;;2.92;2.55;;;20.70;76.10;;;;;;4982530;28;20193;-70
2023/12/13 07:38:25;;;;;;;3.22;2.53;;;20.70;76.40;;;;;;4982911;28;20508;-72
2023/12/13 07:40:51;;;;;;;2.40;2.20;;;20.70;77.10;;;;;;4981535;28;20271;-70
2023/12/13 07:43:19;;;;;;;4.18;2.80;;;20.70;76.30;;;;;;4981452;28;20220;-70
2023/12/13 07:45:51;;;;;;;2.97;2.67;;;20.70;76.40;;;;;;4979404;28;20259;-70
2023/12/13 07:48:20;;;;;;;3.70;2.28;;;20.70;76.20;;;;;;4984710;28;20204;-72
2023/12/13 07:50:47;;;;;;;3.47;3.17;;;20.70;76.50;;;;;;4977948;28;20670;-72
2023/12/13 07:53:14;;;;;;;2.85;2.13;;;20.70;76.50;;;;;;4981750;28;20209;-70
2023/12/13 07:55:40;;;;;;;2.50;2.22;;;20.70;76.50;;;;;;4984098;28;20850;-70
2023/12/13 07:58:08;;;;;;;3.45;1.95;;;20.70;76.50;;;;;;4984981;28;20209;-70
2023/12/13 08:00:35;;;;;;;2.58;2.38;;;20.80;76.60;;;;;;4975750;28;20201;-69
2023/12/13 08:03:02;;;;;;;2.55;1.75;;;20.80;76.50;;;;;;4980341;28;20220;-71
2023/12/13 08:05:31;;;;;;;2.95;2.10;;;20.80;76.60;;;;;;4981232;28;20224;-69
2023/12/13 08:07:57;;;;;;;2.45;1.88;;;20.80;76.60;;;;;;4974793;28;20197;-72
2023/12/13 08:10:24;;;;;;;3.10;2.25;;;20.80;76.40;;;;;;4978283;28;20204;-72
2023/12/13 08:12:51;;;;;;;2.88;1.98;;;20.80;76.50;;;;;;4978010;28;20193;-72
2023/12/13 08:15:17;;;;;;;2.15;1.95;;;20.90;76.50;;;;;;4975077;28;20713;-73
2023/12/13 08:17:44;;;;;;;4.20;2.60;;;20.90;76.60;;;;;;4972072;28;20223;-68
2023/12/13 08:20:12;;;;;;;6.57;2.10;;;20.90;76.80;;;;;;4975004;28;20217;-70
2023/12/13 08:22:40;;;;;;;2.67;1.70;;;21.00;77.20;;;;;;4974123;28;20282;-70
2023/12/13 08:25:09;;;;;;;2.55;1.98;;;20.90;77.10;;;;;;4978393;28;20918;-69
2023/12/13 08:27:35;;;;;;;2.72;1.88;;;21.00;77.40;;;;;;4977150;28;20211;-73
2023/12/13 08:30:02;;;;;;;2.70;1.88;;;21.00;77.50;;;;;;4975219;28;22165;-70
2023/12/13 08:32:29;;;;;;;6.67;1.80;;;21.00;77.70;;;;;;4980035;28;20196;-74
2023/12/13 08:34:56;;;;;;;2.33;1.95;;;21.00;77.60;;;;;;4978659;28;20466;-69
2023/12/13 08:37:23;;;;;;;4.00;2.57;;;21.00;77.90;;;;;;4979435;28;20198;-75
2023/12/13 08:39:52;;;;;;;2.95;2.25;;;21.10;78.30;;;;;;4975584;28;20468;-74
2023/12/13 08:42:19;;;;;;;2.63;2.20;;;21.10;77.80;;;;;;4976700;28;20275;-72
2023/12/13 08:44:46;;;;;;;2.88;1.90;;;21.10;78.00;;;;;;4976158;28;20852;-74
2023/12/13 08:47:13;;;;;;;2.53;1.57;;;21.20;77.90;;;;;;4972023;28;20212;-74
2023/12/13 08:49:40;;;;;;;2.50;1.63;;;21.20;77.80;;;;;;4970791;28;20472;-72
2023/12/13 08:52:07;;;;;;;4.25;1.42;;;21.20;77.70;;;;;;4969713;28;20546;-75
2023/12/13 08:54:34;;;;;;;6.68;3.33;;;21.20;77.80;;;;;;4969849;28;20209;-73
2023/12/13 08:57:02;;;;;;;2.00;1.80;;;21.20;77.60;;;;;;4978816;28;20200;-75
2023/12/13 08:59:29;;;;;;;2.53;1.83;;;21.20;77.60;;;;;;4977350;28;20212;-75
2023/12/13 09:01:56;;;;;;;3.58;1.70;;;21.20;77.40;;;;;;4974863;28;20214;-73
2023/12/13 09:04:22;;;;;;;3.00;2.20;;;21.30;77.50;;;;;;4974015;28;20224;-74
2023/12/13 09:06:49;;;;;;;2.63;2.00;;;21.20;77.40;;;;;;4969132;28;20478;-73
2023/12/13 09:09:16;;;;;;;2.20;1.73;;;21.20;77.30;;;;;;4976616;28;20467;-73
2023/12/13 09:11:43;;;;;;;2.47;2.07;;;21.20;77.30;;;;;;4971008;28;20474;-74
2023/12/13 09:14:11;;;;;;;2.47;1.70;;;21.30;77.30;;;;;;4977046;28;20518;-74
2023/12/13 09:16:38;;;;;;;2.47;1.92;;;21.30;77.30;;;;;;4980323;28;20494;-73
2023/12/13 09:19:06;;;;;;;1.87;1.53;;;21.30;77.20;;;;;;4979487;28;20204;-73
2023/12/13 09:21:33;;;;;;;2.03;1.83;;;21.30;77.20;;;;;;4979109;28;20988;-75
2023/12/13 09:23:59;;;;;;;2.17;1.80;;;21.30;77.20;;;;;;4978508;28;20480;-73
2023/12/13 09:26:26;;;;;;;2.30;2.00;;;21.30;77.10;;;;;;4977334;28;20463;-73
2023/12/13 09:28:55;;;;;;;2.37;1.60;;;21.30;77.10;;;;;;4975871;28;20200;-73
2023/12/13 09:31:24;;;;;;;1.73;1.63;;;21.30;77.00;;;;;;4980398;28;20468;-74
2023/12/13 09:33:51;;;;;;;2.83;2.13;;;21.40;77.10;;;;;;4979377;28;20872;-76
2023/12/13 09:36:18;;;;;;;2.50;2.13;;;21.40;77.10;;;;;;4981649;28;20462;-75
2023/12/13 09:38:46;;;;;;;2.13;1.88;;;21.30;76.90;;;;;;4984737;28;20478;-75
2023/12/13 09:41:17;;;;;;;1.85;1.45;;;21.30;76.90;;;;;;4987200;28;20566;-75
2023/12/13 09:43:44;;;;;;;2.47;1.40;;;21.30;77.80;;;;;;4979756;28;20238;-74
2023/12/13 09:46:16;;;;;;;2.00;1.80;;;21.40;77.00;;;;;;4977382;28;21437;-75
2023/12/13 09:48:45;;;;;;;1.60;1.40;;;21.40;77.00;;;;;;4977995;28;20467;-75
2023/12/13 09:51:13;;;;;;;1.97;1.60;;;21.40;77.00;;;;;;4978336;28;20205;-73
2023/12/13 09:53:40;;;;;;;4.00;3.10;;;21.40;77.00;;;;;;4980799;28;20471;-72
2023/12/13 09:56:09;;;;;;;4.40;2.30;;;21.40;75.90;;;;;;4975802;28;20460;-72
2023/12/13 09:58:35;;;;;;;2.57;2.37;;;21.30;74.20;;;;;;4978623;28;20467;-71
2023/12/13 10:01:10;;;;;;;3.00;2.10;;;21.20;71.80;;;;;;4978889;28;20466;-71
2023/12/13 10:03:38;;;;;;;10.20;2.60;;;21.00;71.20;;;;;;4978557;28;20479;-72
2023/12/13 10:06:08;;;;;;;5.95;2.88;;;21.00;71.00;;;;;;4980632;28;20495;-71
2023/12/13 10:08:35;;;;;;;4.87;2.50;;;20.90;71.10;;;;;;4983804;28;20462;-71
2023/12/13 10:11:02;;;;;;;3.10;1.77;;;20.90;70.00;;;;;;4984750;28;20513;-71
2023/12/13 10:13:29;;;;;;;4.78;2.33;;;20.80;70.20;;;;;;4982299;28;20603;-71
2023/12/13 10:15:56;;;;;;;6.53;2.17;;;20.80;70.50;;;;;;4983664;28;20197;-71
2023/12/13 10:18:23;;;;;;;4.80;1.90;;;20.80;70.40;;;;;;4980513;28;20253;-71
2023/12/13 10:20:49;;;;;;;7.03;2.08;;;20.80;72.00;;;;;;4986365;28;20203;-71
2023/12/13 10:23:18;;;;;;;7.55;3.35;;;20.70;70.60;;;;;;4979940;28;20204;-71
2023/12/13 10:25:45;;;;;;;5.90;2.00;;;20.70;70.30;;;;;;4979648;28;20475;-71
2023/12/13 10:28:13;;;;;;;9.20;2.05;;;20.70;70.20;;;;;;4980141;28;20768;-72
2023/12/13 10:30:41;;;;;;;4.95;1.98;;;20.70;70.30;;;;;;4982048;28;20776;-71
2023/12/13 10:33:07;;;;;;;4.15;1.90;;;20.60;70.00;;;;;;4973611;28;20201;-71
2023/12/13 10:35:34;;;;;;;7.93;2.10;;;20.60;70.10;;;;;;4971410;28;21115;-71
2023/12/13 10:38:03;;;;;;;3.75;1.60;;;20.60;70.20;;;;;;4982450;28;20197;-71
2023/12/13 10:40:31;;;;;;;4.50;1.83;;;20.50;69.80;;;;;;4980399;28;20211;-71
2023/12/13 10:42:58;;;;;;;4.70;1.85;;;20.50;70.10;;;;;;4961809;28;20200;-71
2023/12/13 10:45:25;;;;;;;5.13;2.55;;;20.40;69.70;;;;;;4950875;28;20783;-73
2023/12/13 10:48:04;;;;;;;5.10;1.80;;;20.30;69.30;;;;;;4969626;28;20208;-73
2023/12/13 10:50:31;;;;;;;2.90;1.60;;;20.30;70.80;;;;;;4974688;28;20411;-72
2023/12/13 10:53:00;;;;;;;3.20;1.90;;;20.40;72.30;;;;;;4973928;28;20197;-72
2023/12/13 10:55:29;;;;;;;7.07;2.53;;;20.50;73.20;;;;;;4967628;28;20196;-71
2023/12/13 10:57:57;;;;;;;4.10;1.60;;;20.50;73.90;;;;;;4971054;28;20201;-72
2023/12/13 11:00:27;;;;;;;6.10;1.70;;;20.60;74.20;;;;;;4973467;28;20208;-72
2023/12/13 11:03:00;;;;;;;2.97;1.40;;;20.70;74.40;;;;;;4974537;28;20217;-72
2023/12/13 11:05:28;;;;;;;2.40;1.52;;;20.70;74.80;;;;;;4973795;28;20303;-69
2023/12/13 11:07:54;;;;;;;5.72;1.42;;;20.70;74.70;;;;;;4976064;28;20203;-70
2023/12/13 11:10:22;;;;;;;2.50;1.58;;;20.80;75.40;;;;;;4973629;28;20205;-68
2023/12/13 11:12:50;;;;;;;3.38;1.50;;;20.80;75.50;;;;;;4970483;28;20573;-70
2023/12/13 11:15:19;;;;;;;1.92;1.20;;;20.90;76.20;;;;;;4966489;28;20204;-71
2023/12/13 11:17:48;;;;;;;2.65;1.52;;;20.90;76.40;;;;;;4976602;28;20204;-70
2023/12/13 11:20:16;;;;;;;3.92;1.58;;;20.80;76.50;;;;;;4970380;28;20299;-70
2023/12/13 11:22:47;;;;;;;2.90;1.60;;;20.90;76.50;;;;;;4976734;28;20849;-70
2023/12/13 11:25:14;;;;;;;2.05;1.60;;;20.90;76.50;;;;;;4977354;28;20224;-70
2023/12/13 11:27:55;;;;;;;4.47;2.20;;;21.00;76.50;;;;;;4956400;28;20205;-70
2023/12/13 11:30:23;;;;;;;3.83;1.85;;;21.00;76.60;;;;;;4984458;28;22610;-70
2023/12/13 11:32:51;;;;;;;2.25;1.35;;;20.90;76.70;;;;;;4978351;28;20222;-71
2023/12/13 11:35:20;;;;;;;2.63;1.80;;;21.00;76.60;;;;;;4972808;28;20248;-70
2023/12/13 11:37:51;;;;;;;2.53;1.20;;;21.00;76.60;;;;;;4942705;28;20545;-70
2023/12/13 11:40:18;;;;;;;1.90;1.60;;;21.00;76.50;;;;;;4809495;28;20456;-70
2023/12/13 11:42:46;;;;;;;2.22;1.30;;;21.10;76.60;;;;;;4978075;28;20457;-71
2023/12/13 11:45:13;;;;;;;3.10;1.23;;;21.10;76.50;;;;;;4971348;28;20727;-72
2023/12/13 11:47:46;;;;;;;2.55;1.95;;;21.10;76.40;;;;;;4982617;28;20202;-71
2023/12/13 11:50:14;;;;;;;3.07;1.33;;;21.20;76.40;;;;;;4980086;28;20188;-72
2023/12/13 11:52:41;;;;;;;2.50;1.35;;;21.20;76.30;;;;;;4982884;28;20543;-72
2023/12/13 11:55:08;;;;;;;2.80;1.30;;;21.20;76.30;;;;;;4982641;28;20208;-72
2023/12/13 11:57:35;;;;;;;2.00;1.50;;;21.20;76.30;;;;;;4970587;28;20582;-66
2023/12/13 12:00:04;;;;;;;3.30;1.53;;;21.20;76.20;;;;;;4978584;28;20212;-66
2023/12/13 12:02:31;;;;;;;5.13;1.17;;;21.20;76.20;;;;;;4986796;28;20555;-65
2023/12/13 12:05:01;;;;;;;3.45;1.30;;;21.30;76.30;;;;;;4979953;28;20236;-67
2023/12/13 12:07:27;;;;;;;3.80;1.40;;;21.20;76.20;;;;;;4982382;28;21175;-66
2023/12/13 12:09:55;;;;;;;2.47;1.17;;;21.30;76.20;;;;;;4987362;28;20195;-65
2023/12/13 12:12:25;;;;;;;3.00;1.17;;;21.30;76.20;;;;;;4976867;28;20456;-66
2023/12/13 12:14:52;;;;;;;1.57;1.30;;;21.30;76.20;;;;;;4968465;28;20471;-66
2023/12/13 12:17:20;;;;;;;3.93;1.70;;;21.40;76.40;;;;;;4967567;28;20543;-66
2023/12/13 12:19:47;;;;;;;2.10;1.70;;;21.30;76.40;;;;;;4975756;28;20972;-67
2023/12/13 12:22:16;;;;;;;2.73;1.40;;;21.40;76.70;;;;;;4978461;28;20486;-66
2023/12/13 12:24:45;;;;;;;4.10;1.23;;;21.40;76.70;;;;;;4978935;28;20487;-65
2023/12/13 12:27:13;;;;;;;2.50;1.40;;;21.40;76.80;;;;;;4981925;28;20544;-66
2023/12/13 12:29:40;;;;;;;1.90;1.20;;;21.40;76.80;;;;;;4978411;28;21072;-66
2023/12/13 12:32:09;;;;;;;1.50;1.20;;;21.50;76.90;;;;;;4979832;28;20456;-66
2023/12/13 12:34:37;;;;;;;2.40;1.53;;;21.50;76.80;;;;;;4981195;28;20463;-67
2023/12/13 12:37:04;;;;;;;2.37;1.50;;;21.50;77.00;;;;;;4977289;28;20559;-66
2023/12/13 12:39:33;;;;;;;1.83;1.07;;;21.50;77.00;;;;;;4983337;28;20470;-66
2023/12/13 12:42:00;;;;;;;2.23;1.17;;;21.50;77.00;;;;;;4987682;28;20880;-66
2023/12/13 12:44:27;;;;;;;2.30;1.20;;;21.50;76.90;;;;;;4978416;28;20482;-65
2023/12/13 12:46:53;;;;;;;3.00;1.20;;;21.60;77.00;;;;;;4987258;28;21372;-66